createdAt,value
2018-08-22T00:00:41.464Z,23.00
2018-08-22T00:03:09.608Z,23.00
2018-08-22T00:05:37.678Z,22.90
2018-08-22T00:08:05.793Z,22.80
2018-08-22T00:10:33.917Z,23.00
2018-08-22T00:13:01.937Z,23.10
2018-08-22T00:15:29.984Z,23.00
2018-08-22T00:17:58.028Z,22.80
2018-08-22T00:20:26.034Z,22.60
2018-08-22T00:22:54.175Z,22.50
2018-08-22T00:25:22.275Z,22.60
2018-08-22T00:27:50.313Z,22.70
2018-08-22T00:30:18.680Z,22.80
2018-08-22T00:32:46.721Z,22.90
2018-08-22T00:35:14.766Z,23.00
2018-08-22T00:37:42.833Z,23.10
2018-08-22T00:40:10.851Z,23.20
2018-08-22T00:42:38.952Z,23.30
2018-08-22T00:45:06.977Z,23.30
2018-08-22T00:47:35.017Z,23.30
2018-08-22T00:50:03.067Z,23.40
2018-08-22T00:52:31.377Z,23.40
2018-08-22T00:54:59.394Z,23.50
2018-08-22T00:57:27.521Z,23.40
2018-08-22T00:59:55.549Z,23.20
2018-08-22T01:02:23.585Z,23.00
2018-08-22T01:04:51.645Z,22.70
2018-08-22T01:07:19.748Z,22.60
2018-08-22T01:09:47.716Z,22.40
2018-08-22T01:12:15.786Z,22.20
2018-08-22T01:14:44.088Z,22.20
2018-08-22T01:17:12.162Z,22.10
2018-08-22T01:19:40.415Z,22.00
2018-08-22T01:22:08.447Z,21.90
2018-08-22T01:24:36.468Z,21.90
2018-08-22T01:27:04.658Z,21.90
2018-08-22T01:29:32.880Z,22.10
2018-08-22T01:32:00.940Z,22.20
2018-08-22T01:34:29.019Z,22.30
2018-08-22T01:36:57.049Z,22.20
2018-08-22T01:39:25.209Z,22.10
2018-08-22T01:41:53.250Z,22.00
2018-08-22T01:44:21.308Z,21.80
2018-08-22T01:46:49.375Z,21.70
2018-08-22T01:49:17.413Z,21.60
2018-08-22T01:51:45.463Z,21.50
2018-08-22T01:54:13.501Z,21.40
2018-08-22T01:56:41.572Z,21.40
2018-08-22T01:59:09.593Z,21.40
2018-08-22T02:01:37.705Z,21.20
2018-08-22T02:04:05.897Z,21.10
2018-08-22T02:06:33.889Z,21.10
2018-08-22T02:09:01.920Z,21.20
2018-08-22T02:11:30.154Z,21.30
2018-08-22T02:13:58.216Z,21.50
2018-08-22T02:16:26.250Z,21.70
2018-08-22T02:18:54.309Z,21.80
2018-08-22T02:21:22.311Z,21.60
2018-08-22T02:23:50.429Z,21.40
2018-08-22T02:26:18.509Z,21.30
2018-08-22T02:28:46.730Z,21.10
2018-08-22T02:31:14.880Z,20.90
2018-08-22T02:33:42.901Z,20.70
2018-08-22T02:36:10.991Z,20.50
2018-08-22T02:38:38.988Z,20.50
2018-08-22T02:41:07.023Z,20.60
2018-08-22T02:43:35.236Z,20.40
2018-08-22T02:46:03.410Z,20.40
2018-08-22T02:48:31.479Z,20.40
2018-08-22T02:50:59.566Z,20.60
2018-08-22T02:53:27.758Z,20.90
2018-08-22T02:55:55.808Z,21.10
2018-08-22T02:58:23.861Z,21.10
2018-08-22T03:00:51.953Z,21.40
2018-08-22T03:03:20.181Z,21.60
2018-08-22T03:05:48.252Z,21.60
2018-08-22T03:08:16.280Z,21.70
2018-08-22T03:10:44.309Z,21.80
2018-08-22T03:13:12.387Z,21.90
2018-08-22T03:15:40.404Z,22.00
2018-08-22T03:18:08.451Z,22.00
2018-08-22T03:20:36.485Z,22.00
2018-08-22T03:23:04.544Z,22.10
2018-08-22T03:25:32.786Z,22.10
2018-08-22T03:28:01.662Z,22.10
2018-08-22T03:30:30.159Z,22.10
2018-08-22T03:32:58.304Z,22.20
2018-08-22T03:35:26.416Z,22.20
2018-08-22T03:37:54.684Z,22.20
2018-08-22T03:40:22.777Z,22.30
2018-08-22T03:42:51.101Z,22.30
2018-08-22T03:45:19.121Z,22.20
2018-08-22T03:47:47.158Z,21.90
2018-08-22T03:50:15.234Z,21.70
2018-08-22T03:52:43.356Z,21.60
2018-08-22T03:55:11.377Z,21.50
2018-08-22T03:57:39.424Z,21.10
2018-08-22T04:00:07.445Z,20.90
2018-08-22T04:02:35.478Z,20.70
2018-08-22T04:05:03.692Z,20.50
2018-08-22T04:07:31.796Z,20.30
2018-08-22T04:09:59.826Z,20.10
2018-08-22T04:12:27.857Z,20.00
2018-08-22T04:14:56.050Z,19.90
2018-08-22T04:17:24.073Z,19.90
2018-08-22T04:19:52.124Z,20.20
2018-08-22T04:22:20.369Z,20.40
2018-08-22T04:24:48.390Z,20.50
2018-08-22T04:27:22.988Z,20.60
2018-08-22T04:29:51.057Z,20.60
2018-08-22T04:32:19.167Z,20.90
2018-08-22T04:34:48.591Z,21.20
2018-08-22T04:37:16.621Z,21.40
2018-08-22T04:39:44.686Z,21.50
2018-08-22T04:42:14.148Z,21.70
2018-08-22T04:44:42.276Z,21.70
2018-08-22T04:47:10.371Z,21.80
2018-08-22T04:49:38.854Z,21.80
2018-08-22T04:52:06.973Z,21.80
2018-08-22T04:54:35.178Z,21.80
2018-08-22T04:57:03.298Z,21.80
2018-08-22T04:59:31.440Z,21.90
2018-08-22T05:01:59.728Z,21.60
2018-08-22T05:04:27.837Z,21.40
2018-08-22T05:06:55.963Z,21.20
2018-08-22T05:09:24.378Z,20.90
2018-08-22T05:11:52.528Z,20.70
2018-08-22T05:14:20.575Z,20.60
2018-08-22T05:16:48.631Z,20.50
2018-08-22T05:19:16.893Z,20.80
2018-08-22T05:21:44.993Z,21.20
2018-08-22T05:24:13.264Z,21.60
2018-08-22T05:26:41.346Z,21.90
2018-08-22T05:29:09.551Z,22.30
2018-08-22T05:31:37.593Z,22.70
2018-08-22T05:34:05.836Z,23.10
2018-08-22T05:36:34.111Z,23.60
2018-08-22T05:39:02.287Z,23.90
2018-08-22T05:41:30.393Z,24.00
2018-08-22T05:43:58.634Z,24.20
2018-08-22T05:46:27.884Z,24.70
2018-08-22T05:48:56.036Z,24.90
2018-08-22T05:51:24.257Z,25.10
2018-08-22T05:53:52.354Z,25.10
2018-08-22T05:56:20.442Z,25.20
2018-08-22T05:58:48.728Z,25.40
2018-08-22T06:01:16.757Z,25.50
2018-08-22T06:03:44.805Z,25.80
2018-08-22T06:06:13.091Z,26.10
2018-08-22T06:08:42.713Z,26.20
2018-08-22T06:11:10.821Z,26.30
2018-08-22T06:13:38.916Z,26.40
2018-08-22T06:16:07.303Z,26.30
2018-08-22T06:18:35.365Z,26.20
2018-08-22T06:21:06.418Z,26.10
2018-08-22T06:23:34.637Z,25.90
2018-08-22T06:26:02.691Z,25.60
2018-08-22T06:28:30.719Z,25.30
2018-08-22T06:30:58.838Z,25.10
2018-08-22T06:33:27.303Z,24.90
2018-08-22T06:35:55.322Z,24.70
2018-08-22T06:38:23.388Z,24.60
2018-08-22T06:40:51.445Z,24.50
2018-08-22T06:43:19.521Z,24.50
2018-08-22T06:45:47.570Z,24.40
2018-08-22T06:48:15.988Z,24.30
2018-08-22T06:50:46.604Z,24.30
2018-08-22T06:53:14.657Z,24.20
2018-08-22T06:55:42.749Z,24.20
2018-08-22T06:58:10.812Z,24.20
2018-08-22T07:00:38.963Z,24.10
2018-08-22T07:03:06.984Z,24.10
2018-08-22T07:05:35.125Z,24.10
2018-08-22T07:08:03.459Z,24.10
2018-08-22T07:10:31.454Z,24.10
2018-08-22T07:12:59.660Z,24.20
2018-08-22T07:15:27.767Z,24.20
2018-08-22T07:17:55.822Z,24.30
2018-08-22T07:20:23.911Z,24.30
2018-08-22T07:22:52.042Z,24.30
2018-08-22T07:25:20.214Z,24.30
2018-08-22T07:27:48.256Z,24.30
2018-08-22T07:30:16.575Z,24.40
2018-08-22T07:32:44.590Z,24.40
2018-08-22T07:35:12.740Z,24.40
2018-08-22T07:37:40.761Z,24.40
2018-08-22T07:40:08.838Z,24.40
2018-08-22T07:45:27.647Z,24.50
2018-08-22T07:47:55.765Z,24.60
2018-08-22T07:50:23.860Z,24.60
2018-08-22T07:55:40.848Z,24.70
2018-08-22T07:58:09.012Z,24.80
2018-08-22T08:00:37.073Z,24.80
2018-08-22T08:03:05.202Z,24.90
2018-08-22T08:05:33.402Z,25.00
2018-08-22T08:08:01.437Z,25.00
2018-08-22T08:10:30.094Z,25.10
2018-08-22T08:12:58.538Z,25.10
2018-08-22T08:15:26.733Z,25.20
2018-08-22T08:17:54.810Z,25.30
2018-08-22T08:20:22.859Z,25.30
2018-08-22T08:22:50.917Z,25.40
2018-08-22T08:25:18.943Z,25.40
2018-08-22T08:27:46.982Z,25.50
2018-08-22T08:30:15.384Z,25.50
2018-08-22T08:32:43.408Z,25.50
2018-08-22T08:35:11.506Z,25.60
2018-08-22T08:37:39.754Z,25.60
2018-08-22T08:40:07.966Z,25.60
2018-08-22T08:42:36.014Z,25.70
2018-08-22T08:45:06.456Z,25.80
2018-08-22T08:47:34.752Z,25.90
2018-08-22T08:50:02.942Z,25.90
2018-08-22T08:52:31.268Z,25.90
2018-08-22T08:54:59.414Z,26.00
2018-08-22T08:57:27.512Z,26.10
2018-08-22T08:59:55.529Z,26.10
2018-08-22T09:02:23.646Z,26.20
2018-08-22T09:04:51.682Z,26.30
2018-08-22T09:07:19.714Z,26.40
2018-08-22T09:09:47.759Z,26.40
2018-08-22T09:12:15.836Z,26.50
2018-08-22T09:14:43.966Z,26.60
2018-08-22T09:17:12.148Z,26.60
2018-08-22T09:19:40.273Z,26.60
2018-08-22T09:22:08.400Z,26.60
2018-08-22T09:24:36.470Z,26.60
2018-08-22T09:27:04.539Z,26.70
2018-08-22T09:29:32.712Z,26.70
2018-08-22T09:32:00.725Z,26.80
2018-08-22T09:34:28.891Z,26.90
2018-08-22T09:36:57.043Z,26.90
2018-08-22T09:39:25.139Z,26.90
2018-08-22T09:41:53.179Z,26.90
2018-08-22T09:44:21.285Z,27.00
2018-08-22T09:46:49.392Z,26.90
2018-08-22T09:49:17.389Z,27.00
2018-08-22T09:51:45.478Z,27.10
2018-08-22T09:54:13.534Z,27.20
2018-08-22T09:56:41.582Z,27.20
2018-08-22T09:59:09.667Z,27.30
2018-08-22T10:01:37.713Z,27.30
2018-08-22T10:04:05.746Z,27.40
2018-08-22T10:06:36.469Z,27.50
2018-08-22T10:09:08.218Z,27.50
2018-08-22T10:11:36.328Z,27.60
2018-08-22T10:14:04.469Z,27.60
2018-08-22T10:16:32.573Z,27.70
2018-08-22T10:19:00.713Z,27.70
2018-08-22T10:21:28.873Z,27.80
2018-08-22T10:23:56.968Z,27.80
2018-08-22T10:26:25.050Z,27.80
2018-08-22T10:28:53.222Z,27.90
2018-08-22T10:31:21.409Z,28.00
2018-08-22T10:33:49.584Z,28.10
2018-08-22T10:36:17.940Z,28.20
2018-08-22T10:38:47.574Z,28.40
2018-08-22T10:41:15.637Z,28.40
2018-08-22T10:43:43.737Z,28.50
2018-08-22T10:46:12.527Z,28.50
2018-08-22T10:48:40.856Z,28.50
2018-08-22T10:51:09.426Z,28.70
2018-08-22T10:53:38.020Z,28.70
2018-08-22T10:56:06.534Z,28.70
2018-08-22T10:58:35.166Z,28.80
2018-08-22T11:01:03.350Z,28.80
2018-08-22T11:03:31.385Z,28.80
2018-08-22T11:05:59.452Z,28.80
2018-08-22T11:08:27.504Z,28.80
2018-08-22T11:10:55.697Z,28.80
2018-08-22T11:13:23.842Z,28.80
2018-08-22T11:15:52.080Z,28.80
2018-08-22T11:18:20.476Z,28.90
2018-08-22T11:20:47.367Z,29.00
2018-08-22T11:23:26.830Z,29.10
2018-08-22T11:26:06.069Z,29.10
2018-08-22T11:28:45.397Z,29.20
2018-08-22T11:31:24.887Z,29.20
2018-08-22T11:34:04.540Z,29.20
2018-08-22T11:36:31.440Z,29.30
2018-08-22T11:38:59.492Z,29.30
2018-08-22T11:41:27.601Z,29.40
2018-08-22T11:43:55.709Z,29.40
2018-08-22T11:46:24.871Z,29.50
2018-08-22T11:48:53.985Z,29.60
2018-08-22T11:51:22.067Z,29.60
2018-08-22T11:53:50.155Z,29.70
2018-08-22T11:56:18.228Z,29.70
2018-08-22T11:58:47.119Z,29.70
2018-08-22T12:01:15.184Z,29.70
2018-08-22T12:03:44.331Z,29.70
2018-08-22T12:08:57.140Z,29.60
2018-08-22T12:11:25.474Z,29.70
2018-08-22T12:13:53.613Z,29.70
2018-08-22T12:16:23.072Z,29.80
2018-08-22T12:18:51.168Z,29.80
2018-08-22T12:21:19.396Z,30.00
2018-08-22T12:23:47.445Z,30.10
2018-08-22T12:26:15.697Z,30.30
2018-08-22T12:28:44.881Z,30.40
2018-08-22T12:31:13.007Z,30.60
2018-08-22T12:33:40.984Z,30.50
2018-08-22T12:36:09.033Z,30.50
2018-08-22T12:38:37.720Z,30.40
2018-08-22T12:41:06.641Z,30.40
2018-08-22T12:43:34.744Z,30.40
2018-08-22T12:46:02.817Z,30.40
2018-08-22T12:48:30.862Z,30.30
2018-08-22T12:50:58.925Z,30.40
2018-08-22T12:53:27.114Z,30.50
2018-08-22T12:55:55.341Z,30.60
2018-08-22T12:58:23.487Z,30.60
2018-08-22T13:00:51.593Z,30.60
2018-08-22T13:03:19.677Z,30.60
2018-08-22T13:05:48.186Z,30.70
2018-08-22T13:08:16.316Z,30.60
2018-08-22T13:10:44.498Z,30.60
2018-08-22T13:13:12.566Z,30.50
2018-08-22T13:15:40.640Z,30.30
2018-08-22T13:18:08.682Z,30.40
2018-08-22T13:20:36.730Z,30.50
2018-08-22T13:23:05.153Z,30.60
2018-08-22T13:25:33.217Z,30.70
2018-08-22T13:28:01.300Z,30.90
2018-08-22T13:30:30.008Z,31.10
2018-08-22T13:32:58.097Z,31.20
2018-08-22T13:35:26.236Z,31.20
2018-08-22T13:37:54.262Z,31.20
2018-08-22T13:40:22.418Z,31.10
2018-08-22T13:42:50.451Z,31.10
2018-08-22T13:47:55.416Z,31.10
2018-08-22T13:50:23.597Z,31.00
2018-08-22T13:52:51.675Z,31.00
2018-08-22T13:55:19.773Z,31.00
2018-08-22T13:57:48.059Z,31.00
2018-08-22T14:00:16.128Z,30.90
2018-08-22T14:02:44.362Z,30.90
2018-08-22T14:05:12.385Z,30.90
2018-08-22T14:07:40.545Z,31.00
2018-08-22T14:10:08.665Z,31.00
2018-08-22T14:12:36.744Z,31.00
2018-08-22T14:15:04.846Z,31.00
2018-08-22T14:17:32.988Z,31.00
2018-08-22T14:20:01.050Z,31.10
2018-08-22T14:22:29.520Z,31.10
2018-08-22T14:24:57.461Z,31.10
2018-08-22T14:27:25.542Z,31.10
2018-08-22T14:29:53.775Z,31.10
2018-08-22T14:32:21.855Z,31.00
2018-08-22T14:34:49.923Z,31.00
2018-08-22T14:37:17.989Z,31.00
2018-08-22T14:39:46.168Z,30.80
2018-08-22T14:42:15.369Z,30.60
2018-08-22T14:44:43.419Z,30.60
2018-08-22T14:47:11.513Z,30.50
2018-08-22T14:49:39.814Z,30.60
2018-08-22T14:52:07.911Z,30.60
2018-08-22T14:54:36.059Z,30.60
2018-08-22T14:57:04.272Z,30.60
2018-08-22T14:59:32.485Z,30.60
2018-08-22T15:02:00.610Z,30.50
2018-08-22T15:04:37.094Z,30.40
2018-08-22T15:07:05.147Z,30.30
2018-08-22T15:09:33.279Z,30.20
2018-08-22T15:12:01.333Z,30.10
2018-08-22T15:14:29.416Z,30.10
2018-08-22T15:16:57.473Z,30.10
2018-08-22T15:19:25.593Z,30.10
2018-08-22T15:21:53.616Z,30.10
2018-08-22T15:24:22.318Z,30.20
2018-08-22T15:26:50.377Z,30.20
2018-08-22T15:29:18.405Z,30.20
2018-08-22T15:31:46.468Z,30.20
2018-08-22T15:34:14.674Z,30.30
2018-08-22T15:36:42.983Z,30.30
2018-08-22T15:39:11.378Z,30.30
2018-08-22T15:41:39.504Z,30.30
2018-08-22T15:44:07.577Z,30.20
2018-08-22T15:46:35.734Z,30.20
2018-08-22T15:49:04.114Z,30.20
2018-08-22T15:51:32.668Z,30.20
2018-08-22T15:54:09.039Z,30.10
2018-08-22T15:56:37.116Z,30.10
2018-08-22T15:59:05.229Z,30.10
2018-08-22T16:01:33.612Z,30.10
2018-08-22T16:04:01.713Z,30.00
2018-08-22T16:06:29.824Z,30.00
2018-08-22T16:08:57.973Z,30.00
2018-08-22T16:11:26.193Z,30.00
2018-08-22T16:13:54.865Z,30.00
2018-08-22T16:16:23.482Z,29.80
2018-08-22T16:18:52.154Z,29.80
2018-08-22T16:21:20.613Z,29.80
2018-08-22T16:23:49.137Z,29.80
2018-08-22T16:26:17.446Z,29.60
2018-08-22T16:28:52.057Z,29.60
2018-08-22T16:31:20.230Z,29.60
2018-08-22T16:33:55.120Z,29.60
2018-08-22T16:36:23.411Z,29.50
2018-08-22T16:38:51.503Z,29.50
2018-08-22T16:41:19.561Z,29.40
2018-08-22T16:43:48.557Z,29.40
2018-08-22T16:46:16.693Z,29.30
2018-08-22T16:48:49.933Z,29.30
2018-08-22T16:51:20.077Z,29.20
2018-08-22T16:53:50.079Z,29.10
2018-08-22T16:56:18.237Z,29.10
2018-08-22T16:58:49.237Z,29.10
2018-08-22T17:01:17.465Z,29.00
2018-08-22T17:03:46.054Z,29.00
2018-08-22T17:06:14.260Z,29.00
2018-08-22T17:08:42.391Z,29.00
2018-08-22T17:11:10.741Z,29.00
2018-08-22T17:13:41.421Z,28.90
2018-08-22T17:16:09.595Z,28.90
2018-08-22T17:18:37.911Z,28.80
2018-08-22T17:21:06.478Z,28.80
2018-08-22T17:23:35.537Z,28.70
2018-08-22T17:26:03.880Z,28.70
2018-08-22T17:28:31.963Z,28.60
2018-08-22T17:31:00.008Z,28.60
2018-08-22T17:33:28.062Z,28.50
2018-08-22T17:35:57.402Z,28.50
2018-08-22T17:38:25.855Z,28.40
2018-08-22T17:40:54.085Z,28.40
2018-08-22T17:43:22.303Z,28.30
2018-08-22T17:45:50.402Z,28.30
2018-08-22T17:48:18.746Z,28.20
2018-08-22T17:50:46.924Z,28.10
2018-08-22T17:53:15.078Z,28.10
2018-08-22T17:55:43.090Z,28.00
2018-08-22T17:58:11.153Z,28.00
2018-08-22T18:00:39.301Z,27.90
2018-08-22T18:03:07.404Z,27.80
2018-08-22T18:05:35.446Z,27.70
2018-08-22T18:08:04.169Z,27.70
2018-08-22T18:10:33.890Z,27.60
2018-08-22T18:13:02.041Z,27.50
2018-08-22T18:15:30.133Z,27.50
2018-08-22T18:17:58.198Z,27.40
2018-08-22T18:20:27.460Z,27.40
2018-08-22T18:22:55.840Z,27.30
2018-08-22T18:25:24.345Z,27.20
2018-08-22T18:27:52.407Z,27.10
2018-08-22T18:30:20.692Z,27.10
2018-08-22T18:32:48.773Z,27.00
2018-08-22T18:35:16.875Z,27.00
2018-08-22T18:37:44.980Z,26.90
2018-08-22T18:40:15.809Z,26.90
2018-08-22T18:42:51.155Z,26.80
2018-08-22T18:45:19.311Z,26.80
2018-08-22T18:47:47.374Z,26.70
2018-08-22T18:50:15.505Z,26.70
2018-08-22T18:52:46.921Z,26.60
2018-08-22T18:55:15.052Z,26.60
2018-08-22T18:57:43.282Z,26.50
2018-08-22T19:00:11.325Z,26.40
2018-08-22T19:02:39.571Z,26.40
2018-08-22T19:05:25.301Z,26.30
2018-08-22T19:08:01.356Z,26.20
2018-08-22T19:10:29.422Z,26.00
2018-08-22T19:57:20.594Z,24.80
2018-08-22T19:59:48.864Z,24.80
2018-08-22T20:02:16.934Z,24.80
2018-08-22T20:04:48.763Z,24.70
2018-08-22T20:07:16.983Z,24.70
2018-08-22T20:09:45.319Z,24.70
2018-08-22T20:12:14.389Z,24.60
2018-08-22T20:14:48.326Z,24.60
2018-08-22T20:17:16.420Z,24.60
2018-08-22T20:19:44.525Z,24.50
2018-08-22T20:22:12.555Z,24.50
2018-08-22T20:24:41.066Z,24.40
2018-08-22T20:27:11.124Z,24.40
2018-08-22T20:29:39.301Z,24.40
2018-08-22T20:32:09.440Z,24.40
2018-08-22T20:34:37.668Z,24.30
2018-08-22T20:37:06.063Z,24.30
2018-08-22T20:39:34.172Z,24.30
2018-08-22T20:42:02.488Z,24.30
2018-08-22T20:44:30.710Z,24.30
2018-08-22T20:46:58.814Z,24.30
2018-08-22T20:49:26.855Z,24.30
2018-08-22T20:51:55.046Z,24.30
2018-08-22T20:54:23.232Z,24.30
2018-08-22T20:56:51.476Z,24.30
2018-08-22T20:59:19.890Z,24.40
2018-08-22T21:01:49.379Z,24.40
2018-08-22T21:04:19.147Z,24.50
2018-08-22T21:06:47.278Z,24.40
2018-08-22T21:09:15.374Z,24.40
2018-08-22T21:11:43.488Z,24.40
2018-08-22T21:14:13.401Z,24.30
2018-08-22T21:16:41.527Z,24.30
2018-08-22T21:19:09.615Z,24.20
2018-08-22T21:21:37.913Z,24.20
2018-08-22T21:24:06.049Z,24.10
2018-08-22T21:26:36.303Z,24.10
2018-08-22T21:29:04.472Z,24.10
2018-08-22T21:31:33.600Z,24.10
2018-08-22T21:34:02.583Z,24.00
2018-08-22T21:36:30.790Z,24.10
2018-08-22T21:38:59.818Z,24.00
2018-08-22T21:41:27.886Z,24.00
2018-08-22T21:43:55.960Z,23.90
2018-08-22T21:46:24.040Z,23.90
2018-08-22T21:48:52.420Z,23.80
2018-08-22T21:51:20.580Z,23.80
2018-08-22T21:53:48.945Z,23.90
2018-08-22T21:56:17.101Z,23.80
2018-08-22T21:58:45.255Z,23.80
2018-08-22T22:01:13.707Z,23.80
2018-08-22T22:03:41.901Z,23.70
2018-08-22T22:06:09.993Z,23.80
2018-08-22T22:08:42.691Z,23.70
2018-08-22T22:11:10.765Z,23.70
2018-08-22T22:13:39.926Z,23.70
2018-08-22T22:16:08.146Z,23.70
2018-08-22T22:18:36.360Z,23.70
2018-08-22T22:21:12.392Z,23.60
2018-08-22T22:23:40.509Z,23.70
2018-08-22T22:26:08.652Z,23.70
2018-08-22T22:28:36.778Z,23.60
2018-08-22T22:31:07.178Z,23.50
2018-08-22T22:33:35.324Z,23.60
2018-08-22T22:36:03.440Z,23.60
2018-08-22T22:38:32.086Z,23.50
2018-08-22T22:41:03.461Z,23.60
2018-08-22T22:43:31.657Z,23.70
2018-08-22T22:46:00.899Z,23.60
2018-08-22T22:48:36.461Z,23.70
2018-08-22T22:51:08.019Z,23.70
2018-08-22T22:53:36.097Z,23.70
2018-08-22T22:56:04.329Z,23.80
2018-08-22T22:58:32.947Z,23.80
2018-08-22T23:01:00.995Z,23.80
2018-08-22T23:03:29.145Z,23.90
2018-08-22T23:05:57.221Z,23.80
2018-08-22T23:08:25.408Z,23.80
2018-08-22T23:10:53.561Z,23.70
2018-08-22T23:13:23.991Z,23.70
2018-08-22T23:15:52.116Z,23.70
2018-08-22T23:18:20.153Z,23.60
2018-08-22T23:20:48.177Z,23.60
2018-08-22T23:23:28.281Z,23.50
2018-08-22T23:25:58.803Z,23.40
2018-08-22T23:28:26.968Z,23.40
2018-08-22T23:30:55.009Z,23.50
2018-08-22T23:33:23.109Z,23.50
2018-08-22T23:35:51.222Z,23.40
2018-08-22T23:38:19.301Z,23.50
2018-08-22T23:40:48.974Z,23.50
2018-08-22T23:43:17.097Z,23.50
2018-08-22T23:45:45.221Z,23.50
2018-08-22T23:48:14.547Z,23.40
2018-08-22T23:50:47.453Z,23.50
2018-08-22T23:53:15.509Z,23.40
2018-08-22T23:55:43.593Z,23.40
2018-08-22T23:58:11.679Z,23.40
